Ballykelly, United Kingdom
Current Conditions -  °F | °C
As of 6:50 AM on Friday 28 Nov 2014 (Local Time) from EGAE Reporting Station
Broken Clouds Broken Clouds  
Wind Chill: 45°   Ceiling: 2200
Heat Index: 48°   Visibility: 6mi
Dew Point: 45°   Wind: 7mph
Humidity: 87%   Direction: 90°E
Pressure: 29.62"   Gusts: NA
Location:  55.05°N, 7.02°W
Report Text: EGAE 280650Z 09006KT 9000 FEW014 BKN022 09/07 Q1003
Loading
Personal Weather Stations






























Interactive Weather Map New forecast layout! Learn more

10-Day Weather Forecast

Advertisements
Track Severe Weather on mobile